createdAt,value
2022-10-21T00:01:06.924Z,45.30
2022-10-21T00:03:38.806Z,46.00
2022-10-21T00:06:09.227Z,44.70
2022-10-21T00:08:38.703Z,44.40
2022-10-21T00:11:09.466Z,49.30
2022-10-21T00:13:39.579Z,42.50
2022-10-21T00:16:12.192Z,38.20
2022-10-21T00:18:41.978Z,39.20
2022-10-21T00:21:15.739Z,39.90
2022-10-21T00:23:44.646Z,39.90
2022-10-21T00:26:14.115Z,47.20
2022-10-21T00:28:42.943Z,38.10
2022-10-21T00:31:13.258Z,34.80
2022-10-21T00:33:42.354Z,38.50
2022-10-21T00:36:15.234Z,35.10
2022-10-21T00:38:45.748Z,38.70
2022-10-21T00:41:16.681Z,33.40
2022-10-21T00:44:07.610Z,39.90
2022-10-21T00:46:40.034Z,37.10
2022-10-21T00:49:16.889Z,34.20
2022-10-21T00:51:48.098Z,35.70
2022-10-21T00:54:18.003Z,33.90
2022-10-21T00:56:48.261Z,36.20
2022-10-21T00:59:17.741Z,39.90
2022-10-21T01:01:46.035Z,53.00
2022-10-21T01:04:14.354Z,39.20
2022-10-21T01:06:44.100Z,36.60
2022-10-21T01:09:14.049Z,32.10
2022-10-21T01:11:46.792Z,26.50
2022-10-21T01:14:42.954Z,29.50
2022-10-21T01:17:44.589Z,31.40
2022-10-21T01:20:24.069Z,31.80
2022-10-21T01:23:07.455Z,29.70
2022-10-21T01:25:56.838Z,36.20
2022-10-21T01:28:25.096Z,35.40
2022-10-21T01:30:58.029Z,36.30
2022-10-21T01:33:40.344Z,36.30
2022-10-21T01:36:24.578Z,39.80
2022-10-21T01:39:03.633Z,37.40
2022-10-21T01:41:48.702Z,39.50
2022-10-21T01:44:29.695Z,39.80
2022-10-21T01:47:02.534Z,39.20
2022-10-21T01:49:37.003Z,42.40
2022-10-21T01:52:06.721Z,37.90
2022-10-21T01:54:41.058Z,37.60
2022-10-21T01:57:13.693Z,37.50
2022-10-21T01:59:44.450Z,37.40
2022-10-21T02:02:16.097Z,38.20
2022-10-21T02:04:47.916Z,42.20
2022-10-21T02:07:16.117Z,41.20
2022-10-21T02:09:44.406Z,41.80
2022-10-21T02:12:13.848Z,41.30
2022-10-21T02:14:48.637Z,44.10
2022-10-21T02:17:20.066Z,40.20
2022-10-21T02:19:48.409Z,36.30
2022-10-21T02:22:21.126Z,39.40
2022-10-21T02:24:54.201Z,41.40
2022-10-21T02:27:23.483Z,39.40
2022-10-21T02:29:56.034Z,44.90
2022-10-21T02:32:47.765Z,41.80
2022-10-21T02:35:34.030Z,38.20
2022-10-21T02:38:05.624Z,42.00
2022-10-21T02:40:43.046Z,38.40
2022-10-21T02:43:44.278Z,42.90
2022-10-21T02:46:14.722Z,42.00
2022-10-21T02:48:47.998Z,40.90
2022-10-21T02:51:16.661Z,43.00
2022-10-21T02:53:45.054Z,39.10
2022-10-21T02:56:13.293Z,37.80
2022-10-21T02:58:41.614Z,37.90
2022-10-21T03:01:09.904Z,36.70
2022-10-21T03:03:38.149Z,38.10
2022-10-21T03:06:07.129Z,35.80
2022-10-21T03:08:35.445Z,37.50
2022-10-21T03:11:03.933Z,35.10
2022-10-21T03:13:32.274Z,32.40
2022-10-21T03:16:00.608Z,33.50
2022-10-21T03:18:28.955Z,32.90
2022-10-21T03:20:57.338Z,36.00
2022-10-21T03:23:25.650Z,34.00
2022-10-21T03:25:53.897Z,31.40
2022-10-21T03:28:22.206Z,34.00
2022-10-21T03:30:50.470Z,32.80
2022-10-21T03:33:18.691Z,35.40
2022-10-21T03:35:47.067Z,30.50
2022-10-21T03:38:15.360Z,34.70
2022-10-21T03:40:43.581Z,33.30
2022-10-21T03:43:11.869Z,32.90
2022-10-21T03:45:40.121Z,40.50
2022-10-21T03:48:08.546Z,37.30
2022-10-21T03:50:36.847Z,41.80
2022-10-21T03:53:13.693Z,37.00
2022-10-21T03:55:42.218Z,39.40
2022-10-21T03:58:10.403Z,35.80
2022-10-21T04:00:38.835Z,55.40
2022-10-21T04:03:07.146Z,49.30
2022-10-21T04:05:35.407Z,137.50
2022-10-21T04:08:03.735Z,99.30
2022-10-21T04:10:31.977Z,78.70
2022-10-21T04:13:00.178Z,82.60
2022-10-21T04:15:28.489Z,67.40
2022-10-21T04:17:56.826Z,59.90
2022-10-21T04:20:25.095Z,60.00
2022-10-21T04:22:53.346Z,46.60
2022-10-21T04:25:21.646Z,52.30
2022-10-21T04:27:49.947Z,55.70
2022-10-21T04:30:18.287Z,52.20
2022-10-21T04:32:47.257Z,53.50
2022-10-21T04:35:15.555Z,50.60
2022-10-21T04:37:44.360Z,52.60
2022-10-21T04:40:13.021Z,49.60
2022-10-21T04:42:41.433Z,42.80
2022-10-21T04:45:10.257Z,42.00
2022-10-21T04:47:38.876Z,39.10
2022-10-21T04:50:07.691Z,42.80
2022-10-21T04:52:36.225Z,39.70
2022-10-21T04:55:05.497Z,43.30
2022-10-21T04:57:33.846Z,38.90
2022-10-21T05:00:02.378Z,41.80
2022-10-21T05:02:30.817Z,39.40
2022-10-21T05:04:59.137Z,39.40
2022-10-21T05:07:27.917Z,42.40
2022-10-21T05:09:56.291Z,43.40
2022-10-21T05:12:24.575Z,43.30
2022-10-21T05:14:52.854Z,46.20
2022-10-21T05:17:21.170Z,45.50
2022-10-21T05:19:49.391Z,46.10
2022-10-21T05:22:17.705Z,50.00
2022-10-21T05:24:46.577Z,43.60
2022-10-21T05:27:14.950Z,40.20
2022-10-21T05:29:43.211Z,44.80
2022-10-21T05:32:11.554Z,43.30
2022-10-21T05:34:39.765Z,43.40
2022-10-21T05:37:08.078Z,41.10
2022-10-21T05:39:36.488Z,44.70
2022-10-21T05:42:04.824Z,47.10
2022-10-21T05:44:33.033Z,44.70
2022-10-21T05:47:01.304Z,45.20
2022-10-21T05:49:29.526Z,44.20
2022-10-21T05:51:57.965Z,45.60
2022-10-21T05:54:26.220Z,43.90
2022-10-21T05:56:58.281Z,41.30
2022-10-21T05:59:27.697Z,57.10
2022-10-21T06:01:55.908Z,55.30
2022-10-21T06:04:24.253Z,51.80
2022-10-21T06:06:52.557Z,45.60
2022-10-21T06:09:20.830Z,42.30
2022-10-21T06:11:49.153Z,47.50
2022-10-21T06:14:17.529Z,45.90
2022-10-21T06:16:45.879Z,44.90
2022-10-21T06:19:14.293Z,49.10
2022-10-21T06:21:42.610Z,41.00
2022-10-21T06:24:10.878Z,44.60
2022-10-21T06:26:39.102Z,47.60
2022-10-21T06:29:07.497Z,48.40
2022-10-21T06:31:35.743Z,50.20
2022-10-21T06:34:04.238Z,51.70
2022-10-21T06:36:32.634Z,46.20
2022-10-21T06:39:00.931Z,52.20
2022-10-21T06:41:29.179Z,55.30
2022-10-21T06:43:57.642Z,60.20
2022-10-21T06:46:26.071Z,62.00
2022-10-21T06:48:54.310Z,59.30
2022-10-21T06:51:24.399Z,55.70
2022-10-21T06:53:58.430Z,52.40
2022-10-21T06:56:27.915Z,55.70
2022-10-21T06:58:58.129Z,49.40
2022-10-21T07:01:35.288Z,51.40
2022-10-21T07:04:10.504Z,51.00
2022-10-21T07:06:38.902Z,51.50
2022-10-21T07:09:08.941Z,55.30
2022-10-21T07:11:37.288Z,49.90
2022-10-21T07:14:05.784Z,51.20
2022-10-21T07:16:36.846Z,50.50
2022-10-21T07:19:06.059Z,53.20
2022-10-21T07:21:34.651Z,53.00
2022-10-21T07:24:02.998Z,51.90
2022-10-21T07:26:33.494Z,53.60
2022-10-21T07:29:02.497Z,51.10
2022-10-21T07:31:37.326Z,57.50
2022-10-21T07:34:08.287Z,58.20
2022-10-21T07:36:42.538Z,56.70
2022-10-21T07:39:14.185Z,56.70
2022-10-21T07:41:45.753Z,64.10
2022-10-21T07:44:14.701Z,59.90
2022-10-21T07:46:44.267Z,59.10
2022-10-21T07:49:13.451Z,60.60
2022-10-21T07:51:43.220Z,58.40
2022-10-21T07:54:12.588Z,55.70
2022-10-21T07:56:47.319Z,53.80
2022-10-21T07:59:17.550Z,53.50
2022-10-21T08:04:24.696Z,52.90
2022-10-21T08:06:53.070Z,53.90
2022-10-21T08:09:22.308Z,55.70
2022-10-21T08:11:50.535Z,60.60
2022-10-21T08:14:18.841Z,55.50
2022-10-21T08:16:51.746Z,52.60
2022-10-21T08:19:24.163Z,54.40
2022-10-21T08:21:52.501Z,56.20
2022-10-21T08:24:20.758Z,58.00
2022-10-21T08:26:49.752Z,55.80
2022-10-21T08:29:18.203Z,51.40
2022-10-21T08:31:46.694Z,54.50
2022-10-21T08:34:14.951Z,54.60
2022-10-21T08:36:43.308Z,55.30
2022-10-21T08:39:11.540Z,53.40
2022-10-21T08:42:07.812Z,60.90
2022-10-21T08:44:43.027Z,58.90
2022-10-21T08:49:52.161Z,49.90
2022-10-21T08:52:26.195Z,47.00
2022-10-21T08:55:01.406Z,48.70
2022-10-21T08:57:34.823Z,44.20
2022-10-21T09:00:22.291Z,44.60
2022-10-21T09:03:19.718Z,44.80
2022-10-21T09:05:54.274Z,47.40
2022-10-21T09:08:38.044Z,46.60
2022-10-21T09:11:20.105Z,41.20
2022-10-21T09:13:56.173Z,41.90
2022-10-21T09:16:40.257Z,42.40
2022-10-21T09:19:44.000Z,34.20
2022-10-21T09:22:35.878Z,35.70
2022-10-21T09:25:16.508Z,39.00
2022-10-21T09:27:55.474Z,33.30
2022-10-21T09:30:25.325Z,27.30
2022-10-21T09:32:59.233Z,29.30
2022-10-21T09:35:36.718Z,30.40
2022-10-21T09:38:19.674Z,31.10
2022-10-21T09:40:52.297Z,51.00
2022-10-21T09:43:25.196Z,60.20
2022-10-21T09:45:53.758Z,34.50
2022-10-21T09:49:08.120Z,43.70
2022-10-21T09:51:40.372Z,26.00
2022-10-21T09:54:13.695Z,23.20
2022-10-21T09:56:58.957Z,14.90
2022-10-21T10:02:14.484Z,14.30
2022-10-21T10:04:42.867Z,9.00
2022-10-21T10:07:40.438Z,11.50
2022-10-21T10:10:34.224Z,10.20
2022-10-21T10:13:02.446Z,12.90
2022-10-21T10:15:37.604Z,9.20
2022-10-21T10:18:19.878Z,8.90
2022-10-21T10:21:05.092Z,6.70
2022-10-21T10:23:46.946Z,7.50
2022-10-21T10:26:22.721Z,7.40
2022-10-21T10:28:54.274Z,7.70
2022-10-21T10:31:32.584Z,7.50
2022-10-21T10:34:07.884Z,10.60
2022-10-21T10:36:40.224Z,6.30
2022-10-21T10:39:23.499Z,9.40
2022-10-21T10:41:52.762Z,7.40
2022-10-21T10:44:30.025Z,8.70
2022-10-21T10:47:01.187Z,8.80
2022-10-21T10:49:40.246Z,8.30
2022-10-21T10:52:11.314Z,9.20
2022-10-21T10:54:41.999Z,6.90
2022-10-21T10:57:18.901Z,6.60
2022-10-21T11:00:19.541Z,16.30
2022-10-21T11:03:00.529Z,9.40
2022-10-21T11:05:37.709Z,8.20
2022-10-21T11:08:15.622Z,8.00
2022-10-21T11:10:48.308Z,5.80
2022-10-21T11:13:25.096Z,8.10
2022-10-21T11:16:05.942Z,7.80
2022-10-21T11:18:39.879Z,8.30
2022-10-21T11:21:32.660Z,7.70
2022-10-21T11:24:03.844Z,10.70
2022-10-21T11:26:56.306Z,9.20
2022-10-21T11:29:36.611Z,8.10
2022-10-21T11:32:12.478Z,6.10
2022-10-21T11:34:53.280Z,8.40
2022-10-21T11:37:39.863Z,8.30
2022-10-21T11:40:19.847Z,9.20
2022-10-21T11:42:51.664Z,7.20
2022-10-21T11:45:33.267Z,7.60
2022-10-21T11:48:25.994Z,8.80
2022-10-21T11:51:23.055Z,8.10
2022-10-21T11:54:01.217Z,6.90
2022-10-21T11:56:47.627Z,7.10
2022-10-21T11:59:33.919Z,8.50
2022-10-21T12:02:25.365Z,11.90
2022-10-21T12:04:59.510Z,11.00
2022-10-21T12:07:59.541Z,8.70
2022-10-21T12:10:33.599Z,8.70
2022-10-21T12:13:15.514Z,12.10
2022-10-21T12:15:49.569Z,7.10
2022-10-21T12:18:20.930Z,11.70
2022-10-21T12:20:52.832Z,8.30
2022-10-21T12:23:24.846Z,10.60
2022-10-21T12:26:04.788Z,5.30
2022-10-21T12:28:43.005Z,9.30
2022-10-21T12:32:05.619Z,9.70
2022-10-21T12:34:34.393Z,10.90
2022-10-21T12:37:02.643Z,7.10
2022-10-21T12:39:33.918Z,11.30
2022-10-21T12:42:06.215Z,8.90
2022-10-21T12:44:36.748Z,9.40
2022-10-21T12:47:23.645Z,10.60
2022-10-21T12:50:07.161Z,8.60
2022-10-21T12:52:38.544Z,8.70
2022-10-21T12:55:19.441Z,10.00
2022-10-21T12:57:58.156Z,9.20
2022-10-21T13:00:29.426Z,8.20
2022-10-21T13:03:06.517Z,13.20
2022-10-21T13:05:37.400Z,8.50
2022-10-21T13:08:23.058Z,7.90
2022-10-21T13:11:06.783Z,7.30
2022-10-21T13:13:43.253Z,6.50
2022-10-21T13:16:20.563Z,8.20
2022-10-21T13:19:00.273Z,8.70
2022-10-21T13:21:48.116Z,9.60
2022-10-21T13:24:23.877Z,9.80
2022-10-21T13:26:58.389Z,12.90
2022-10-21T13:29:39.415Z,12.10
2022-10-21T13:32:14.930Z,12.30
2022-10-21T13:34:49.094Z,12.70
2022-10-21T13:37:35.028Z,23.00
2022-10-21T13:40:13.719Z,13.00
2022-10-21T13:43:07.085Z,16.60
2022-10-21T13:48:18.543Z,21.10
2022-10-21T13:50:49.557Z,20.30
2022-10-21T13:53:21.956Z,25.70
2022-10-21T13:55:55.844Z,23.50
2022-10-21T13:58:25.726Z,17.40
2022-10-21T14:00:57.897Z,17.90
2022-10-21T14:03:28.163Z,14.60
2022-10-21T14:06:01.673Z,17.50
2022-10-21T14:08:33.525Z,20.20
2022-10-21T14:11:23.153Z,27.90
2022-10-21T14:13:51.727Z,28.10
2022-10-21T14:16:29.178Z,33.90
2022-10-21T14:18:58.294Z,22.40
2022-10-21T14:21:29.626Z,22.50
2022-10-21T14:23:58.177Z,18.10
2022-10-21T14:26:31.000Z,14.90
2022-10-21T14:29:01.149Z,17.00
2022-10-21T14:31:29.812Z,15.60
2022-10-21T14:33:58.263Z,13.30
2022-10-21T14:36:27.892Z,12.40
2022-10-21T14:39:06.663Z,17.10
2022-10-21T14:41:37.719Z,12.30
2022-10-21T14:44:26.702Z,16.20
2022-10-21T14:46:55.315Z,14.40
2022-10-21T14:49:27.750Z,15.80
2022-10-21T14:52:05.731Z,12.60
2022-10-21T14:54:45.764Z,15.40
2022-10-21T14:57:32.200Z,13.30
2022-10-21T15:00:01.600Z,15.20
2022-10-21T15:02:34.378Z,16.00
2022-10-21T15:05:05.822Z,15.50
2022-10-21T15:07:36.890Z,16.60
2022-10-21T15:10:05.442Z,23.90
2022-10-21T15:12:52.742Z,99.60
2022-10-21T15:15:54.054Z,47.60
2022-10-21T15:18:26.875Z,44.90
2022-10-21T15:21:08.575Z,41.50
2022-10-21T15:23:49.832Z,88.40
2022-10-21T15:26:31.292Z,25.80
2022-10-21T15:28:59.775Z,18.00
2022-10-21T15:31:29.409Z,22.90
2022-10-21T15:33:58.769Z,17.70
2022-10-21T15:36:26.937Z,27.00
2022-10-21T15:38:55.503Z,27.70
2022-10-21T15:41:25.571Z,26.20
2022-10-21T15:43:53.752Z,36.90
2022-10-21T15:46:22.019Z,27.10
2022-10-21T15:48:50.178Z,23.60
2022-10-21T15:51:18.541Z,23.20
2022-10-21T15:53:46.955Z,25.50
2022-10-21T15:56:17.958Z,27.00
2022-10-21T15:58:46.759Z,29.20
2022-10-21T16:01:17.352Z,31.70
2022-10-21T16:03:45.860Z,39.20
2022-10-21T16:06:19.873Z,32.60
2022-10-21T16:08:49.527Z,33.50
2022-10-21T16:11:29.599Z,37.40
2022-10-21T16:14:10.192Z,40.40
2022-10-21T16:16:41.089Z,59.50
2022-10-21T16:19:09.466Z,55.50
2022-10-21T16:21:37.715Z,53.40
2022-10-21T16:24:06.348Z,46.70
2022-10-21T16:26:40.024Z,45.90
2022-10-21T16:29:20.532Z,39.50
2022-10-21T16:31:49.152Z,46.00
2022-10-21T16:34:17.417Z,37.00
2022-10-21T16:36:45.617Z,35.30
2022-10-21T16:39:16.796Z,77.20
2022-10-21T16:41:45.227Z,123.10
2022-10-21T16:44:13.571Z,163.50
2022-10-21T16:46:54.422Z,112.40
2022-10-21T16:49:25.842Z,231.40
2022-10-21T16:51:54.710Z,202.50
2022-10-21T16:54:23.895Z,167.40
2022-10-21T16:56:55.033Z,153.20
2022-10-21T16:59:23.921Z,119.70
2022-10-21T17:01:52.411Z,102.70
2022-10-21T17:04:20.664Z,105.80
2022-10-21T17:06:49.442Z,120.00
2022-10-21T17:09:19.480Z,113.70
2022-10-21T17:11:47.775Z,103.30
2022-10-21T17:14:19.919Z,105.70
2022-10-21T17:16:48.564Z,90.30
2022-10-21T17:19:16.920Z,95.40
2022-10-21T17:21:45.760Z,65.40
2022-10-21T17:24:16.120Z,63.90
2022-10-21T17:26:45.529Z,64.30
2022-10-21T17:29:13.926Z,84.80
2022-10-21T17:31:42.770Z,98.30
2022-10-21T17:34:24.874Z,85.20
2022-10-21T17:36:53.243Z,69.50
2022-10-21T17:39:21.854Z,78.70
2022-10-21T17:41:50.194Z,84.00
2022-10-21T17:44:18.831Z,67.60
2022-10-21T17:46:49.493Z,71.10
2022-10-21T17:49:17.950Z,83.20
2022-10-21T17:51:46.282Z,74.70
2022-10-21T17:54:14.579Z,70.90
2022-10-21T17:56:43.078Z,60.30
2022-10-21T17:59:11.759Z,64.00
2022-10-21T18:01:40.113Z,65.90
2022-10-21T18:04:11.445Z,65.90
2022-10-21T18:06:40.109Z,68.20
2022-10-21T18:09:09.078Z,67.20
2022-10-21T18:11:37.451Z,80.90
2022-10-21T18:14:05.894Z,87.20
2022-10-21T18:16:35.024Z,80.80
2022-10-21T18:19:04.239Z,85.40
2022-10-21T18:21:32.575Z,74.40
2022-10-21T18:24:00.875Z,75.10
2022-10-21T18:26:31.607Z,62.20
2022-10-21T18:29:02.382Z,57.10
2022-10-21T18:31:33.851Z,50.50
2022-10-21T18:34:05.082Z,44.40
2022-10-21T18:36:33.663Z,45.60
2022-10-21T18:39:01.955Z,46.00
2022-10-21T18:41:30.585Z,53.30
2022-10-21T18:44:04.875Z,36.20
2022-10-21T18:46:33.265Z,47.40
2022-10-21T18:49:07.990Z,48.20
2022-10-21T18:51:36.540Z,42.70
2022-10-21T18:54:06.993Z,51.20
2022-10-21T18:56:35.149Z,42.30
2022-10-21T18:59:05.450Z,47.10
2022-10-21T19:01:33.824Z,46.90
2022-10-21T19:04:02.322Z,46.90
2022-10-21T19:06:38.098Z,47.90
2022-10-21T19:09:14.379Z,46.30
2022-10-21T19:11:43.982Z,51.40
2022-10-21T19:14:14.455Z,50.40
2022-10-21T19:16:45.397Z,52.70
2022-10-21T19:19:15.615Z,43.70
2022-10-21T19:21:43.821Z,43.10
2022-10-21T19:24:12.691Z,40.20
2022-10-21T19:26:42.746Z,42.50
2022-10-21T19:29:14.689Z,44.20
2022-10-21T19:31:44.568Z,49.40
2022-10-21T19:34:14.139Z,46.70
2022-10-21T19:36:42.978Z,37.70
2022-10-21T19:39:11.568Z,38.20
2022-10-21T19:41:40.091Z,36.10
2022-10-21T19:44:08.419Z,33.90
2022-10-21T19:46:37.062Z,30.20
2022-10-21T19:49:06.983Z,36.90
2022-10-21T19:51:36.902Z,34.50
2022-10-21T19:54:06.870Z,33.40
2022-10-21T19:56:35.815Z,37.20
2022-10-21T19:59:05.074Z,41.90
2022-10-21T20:01:34.447Z,42.90
2022-10-21T20:04:03.561Z,43.70
2022-10-21T20:06:35.813Z,45.80
2022-10-21T20:09:07.456Z,51.80
2022-10-21T20:11:36.797Z,50.20
2022-10-21T20:14:05.741Z,36.80
2022-10-21T20:16:37.283Z,33.90
2022-10-21T20:19:06.866Z,28.70
2022-10-21T20:21:36.676Z,56.80
2022-10-21T20:24:05.468Z,59.00
2022-10-21T20:26:34.308Z,67.00
2022-10-21T20:29:02.661Z,35.70
2022-10-21T20:31:31.071Z,30.40
2022-10-21T20:33:59.518Z,27.00
2022-10-21T20:36:34.733Z,29.00
2022-10-21T20:39:03.873Z,26.60
2022-10-21T20:41:36.168Z,25.20
2022-10-21T20:44:07.049Z,25.90
2022-10-21T20:46:36.450Z,22.30
2022-10-21T20:49:07.298Z,22.20
2022-10-21T20:51:37.728Z,21.70
2022-10-21T20:54:08.889Z,21.40
2022-10-21T20:56:39.589Z,20.10
2022-10-21T20:59:10.518Z,21.40
2022-10-21T21:01:43.121Z,16.40
2022-10-21T21:04:13.916Z,16.40
2022-10-21T21:06:45.378Z,18.80
2022-10-21T21:09:37.666Z,15.10
2022-10-21T21:12:04.262Z,14.00
2022-10-21T21:14:32.935Z,14.10
2022-10-21T21:17:01.197Z,12.90
2022-10-21T21:19:29.466Z,12.40
2022-10-21T21:21:58.106Z,14.60
2022-10-21T21:24:26.681Z,13.30
2022-10-21T21:26:55.109Z,12.90
2022-10-21T21:29:23.642Z,11.90
2022-10-21T21:31:51.871Z,11.90
2022-10-21T21:34:20.110Z,14.40
2022-10-21T21:36:48.349Z,14.70
2022-10-21T21:39:16.537Z,15.70
2022-10-21T21:41:44.860Z,12.90
2022-10-21T21:44:13.106Z,15.00
2022-10-21T21:46:41.295Z,12.90
2022-10-21T21:49:09.805Z,14.00
2022-10-21T21:51:38.294Z,14.90
2022-10-21T21:54:07.986Z,11.60
2022-10-21T21:56:36.446Z,11.70
2022-10-21T21:59:04.762Z,10.20
2022-10-21T22:01:33.147Z,10.00
2022-10-21T22:04:01.503Z,11.10
2022-10-21T22:06:32.847Z,13.40
2022-10-21T22:09:01.775Z,11.40
2022-10-21T22:11:32.330Z,10.80
2022-10-21T22:14:01.116Z,12.10
2022-10-21T22:16:32.812Z,15.20
2022-10-21T22:19:01.355Z,15.50
2022-10-21T22:21:31.012Z,15.30
2022-10-21T22:23:59.621Z,14.20
2022-10-21T22:26:28.198Z,9.90
2022-10-21T22:28:56.418Z,15.90
2022-10-21T22:31:29.218Z,19.80
2022-10-21T22:34:00.979Z,18.30
2022-10-21T22:36:29.535Z,18.00
2022-10-21T22:38:58.026Z,18.60
2022-10-21T22:41:27.009Z,12.50
2022-10-21T22:43:55.431Z,12.30
2022-10-21T22:46:38.883Z,15.20
2022-10-21T22:49:07.724Z,15.30
2022-10-21T22:51:35.986Z,12.50
2022-10-21T22:54:05.615Z,14.00
2022-10-21T22:56:38.816Z,9.30
2022-10-21T22:59:06.994Z,11.30
2022-10-21T23:01:35.251Z,12.20
2022-10-21T23:04:04.208Z,15.10
2022-10-21T23:06:34.729Z,14.10
2022-10-21T23:09:04.769Z,20.60
2022-10-21T23:11:33.240Z,17.80
2022-10-21T23:14:03.249Z,14.00
2022-10-21T23:19:06.345Z,10.50
2022-10-21T23:21:35.287Z,14.80
2022-10-21T23:24:05.005Z,12.70
2022-10-21T23:26:33.270Z,17.20
2022-10-21T23:29:01.678Z,17.90
2022-10-21T23:31:29.991Z,12.70
2022-10-21T23:33:58.184Z,13.40
2022-10-21T23:36:26.409Z,10.70
2022-10-21T23:38:56.152Z,17.70
2022-10-21T23:41:24.880Z,12.70
2022-10-21T23:43:53.460Z,13.60
2022-10-21T23:46:22.792Z,14.40
2022-10-21T23:48:51.052Z,15.50
2022-10-21T23:51:20.126Z,12.30
2022-10-21T23:53:48.480Z,11.20
2022-10-21T23:56:16.776Z,14.90
2022-10-21T23:58:44.976Z,12.30
